Time;durP1;ratioP1;P1;durP2;ratioP2;P2;SDS_P1;SDS_P2;PMS_P1;PMS_P2;Temp;Humidity;BMP_temperature;BMP_pressure;BME280_temperature;BME280_humidity;BME280_pressure;Samples;Min_cycle;Max_cycle;Signal;HPM_P1;HPM_P2
2023/12/22 00:02:25;;;;;;;10.93;2.92;;;6.40;99.90;;;;;;4982047;28;20046;-77
2023/12/22 00:04:51;;;;;;;4.38;1.75;;;6.40;99.90;;;;;;4981403;28;20031;-77
2023/12/22 00:07:17;;;;;;;4.78;1.77;;;6.40;99.90;;;;;;4979060;28;20050;-77
2023/12/22 00:09:42;;;;;;;4.53;1.35;;;6.30;99.90;;;;;;4965454;28;20053;-77
2023/12/22 00:12:08;;;;;;;4.47;2.50;;;6.30;99.90;;;;;;4971631;28;20121;-77
2023/12/22 00:14:33;;;;;;;2.97;1.77;;;6.30;99.90;;;;;;4981049;28;20042;-77
2023/12/22 00:16:59;;;;;;;11.90;1.58;;;6.30;99.90;;;;;;4981526;28;20096;-77
2023/12/22 00:19:24;;;;;;;6.65;2.83;;;6.30;99.90;;;;;;4971796;28;20042;-77
2023/12/22 00:21:50;;;;;;;3.58;1.83;;;6.30;99.90;;;;;;4978849;28;20049;-77
2023/12/22 00:24:16;;;;;;;1.85;1.65;;;6.40;99.90;;;;;;4965183;28;20081;-77
2023/12/22 00:26:41;;;;;;;8.73;2.90;;;6.50;99.90;;;;;;4980743;28;20080;-77
2023/12/22 00:29:07;;;;;;;10.77;3.03;;;6.50;99.90;;;;;;4981275;28;20533;-77
2023/12/22 00:31:32;;;;;;;8.98;3.20;;;6.60;99.90;;;;;;4988552;28;20034;-78
2023/12/22 00:33:58;;;;;;;4.95;1.95;;;6.70;99.90;;;;;;4988387;28;20624;-77
2023/12/22 00:36:24;;;;;;;4.65;2.50;;;6.80;99.90;;;;;;4974202;28;20521;-77
2023/12/22 00:38:50;;;;;;;3.50;1.55;;;6.80;99.90;;;;;;4985657;28;20676;-77
2023/12/22 00:41:16;;;;;;;6.97;3.17;;;6.70;99.90;;;;;;4987286;28;20046;-77
2023/12/22 00:43:41;;;;;;;8.30;2.92;;;6.60;99.90;;;;;;4988296;28;20366;-77
2023/12/22 00:46:07;;;;;;;14.45;2.30;;;6.50;99.90;;;;;;4987154;28;20050;-77
2023/12/22 00:48:32;;;;;;;5.22;2.83;;;6.40;99.90;;;;;;4970424;28;20049;-78
2023/12/22 00:50:58;;;;;;;6.72;2.83;;;6.40;99.90;;;;;;4983023;28;20096;-78
2023/12/22 00:53:23;;;;;;;7.18;3.70;;;6.30;99.90;;;;;;4986821;28;20042;-78
2023/12/22 00:55:49;;;;;;;3.28;1.60;;;6.30;99.90;;;;;;4971594;28;20137;-77
2023/12/22 00:58:15;;;;;;;9.18;3.55;;;6.30;99.90;;;;;;4987765;28;20046;-78
2023/12/22 01:00:40;;;;;;;8.93;2.55;;;6.40;99.90;;;;;;4987662;28;20044;-78
2023/12/22 01:03:06;;;;;;;3.63;1.73;;;6.40;99.90;;;;;;4982186;28;20101;-77
2023/12/22 01:05:31;;;;;;;4.32;1.75;;;6.30;99.90;;;;;;4987103;28;20497;-78
2023/12/22 01:07:57;;;;;;;4.10;1.83;;;6.30;99.90;;;;;;4985282;28;20464;-77
2023/12/22 01:10:22;;;;;;;5.45;1.67;;;6.20;99.90;;;;;;4974742;28;20117;-77
2023/12/22 01:12:48;;;;;;;8.30;2.63;;;6.20;99.90;;;;;;4977300;28;20034;-77
2023/12/22 01:15:14;;;;;;;1.75;1.60;;;6.20;99.90;;;;;;4986957;28;20057;-78
2023/12/22 01:17:39;;;;;;;2.65;1.42;;;6.20;99.90;;;;;;4979969;28;20134;-77
2023/12/22 01:20:05;;;;;;;4.43;2.90;;;6.20;99.90;;;;;;4983309;28;20520;-77
2023/12/22 01:22:32;;;;;;;6.05;2.03;;;6.20;99.90;;;;;;4985532;28;20046;-77
2023/12/22 01:24:57;;;;;;;6.97;2.15;;;6.20;99.90;;;;;;4988614;28;20046;-77
2023/12/22 01:27:23;;;;;;;7.47;2.58;;;6.30;99.90;;;;;;4987056;28;20039;-77
2023/12/22 01:29:48;;;;;;;4.95;2.65;;;6.30;99.90;;;;;;4986874;28;20742;-77
2023/12/22 01:32:14;;;;;;;3.80;2.17;;;6.30;99.90;;;;;;4986211;28;20062;-77
2023/12/22 01:34:40;;;;;;;8.10;3.78;;;6.30;99.90;;;;;;4988544;28;20535;-77
2023/12/22 01:37:05;;;;;;;4.82;2.40;;;6.40;99.90;;;;;;4986600;28;20042;-77
2023/12/22 01:39:31;;;;;;;4.75;2.35;;;6.50;99.90;;;;;;4987708;28;20512;-77
2023/12/22 01:41:57;;;;;;;9.45;2.53;;;6.50;99.90;;;;;;4984708;28;20054;-77
2023/12/22 01:44:22;;;;;;;11.95;2.80;;;6.50;99.90;;;;;;4983669;28;20046;-77
2023/12/22 01:46:49;;;;;;;4.63;2.45;;;6.50;99.90;;;;;;4984564;28;20049;-77
2023/12/22 01:49:15;;;;;;;4.70;2.55;;;6.60;99.90;;;;;;4967891;28;20045;-77
2023/12/22 01:51:41;;;;;;;6.47;2.47;;;6.60;99.90;;;;;;4982090;28;20413;-77
2023/12/22 01:54:06;;;;;;;5.22;2.13;;;6.70;99.90;;;;;;4983208;28;20097;-77
2023/12/22 01:56:33;;;;;;;3.05;1.20;;;6.70;99.90;;;;;;4983861;28;20062;-77
2023/12/22 01:59:01;;;;;;;9.23;3.03;;;6.80;99.90;;;;;;4982932;28;20468;-77
2023/12/22 02:01:28;;;;;;;1.15;1.02;;;6.70;99.90;;;;;;4982440;28;20096;-77
2023/12/22 02:03:54;;;;;;;3.10;1.63;;;6.70;99.90;;;;;;4982165;28;20050;-77
2023/12/22 02:06:20;;;;;;;1.35;1.02;;;6.60;99.90;;;;;;4982179;28;20555;-77
2023/12/22 02:08:50;;;;;;;1.75;1.15;;;6.60;99.90;;;;;;4976206;28;20054;-77
2023/12/22 02:11:16;;;;;;;10.48;1.33;;;6.50;99.90;;;;;;5056313;23;20683;-77
2023/12/22 02:13:43;;;;;;;5.10;1.58;;;6.40;99.90;;;;;;4988592;28;20057;-77
2023/12/22 02:16:34;;;;;;;2.05;0.85;;;6.50;99.90;;;;;;4993087;28;20037;-77
2023/12/22 02:19:09;;;;;;;1.05;0.57;;;6.40;99.90;;;;;;4975576;28;20042;-77
2023/12/22 02:21:35;;;;;;;2.13;1.27;;;6.50;99.90;;;;;;4983598;28;20397;-77
2023/12/22 02:24:00;;;;;;;2.92;1.45;;;6.50;99.90;;;;;;4991244;28;20046;-77
2023/12/22 02:26:33;;;;;;;5.28;3.13;;;6.60;99.90;;;;;;4989684;28;20448;-77
2023/12/22 02:29:00;;;;;;;3.85;1.23;;;6.60;99.90;;;;;;4993875;28;20085;-77
2023/12/22 02:31:49;;;;;;;3.83;1.10;;;6.60;99.90;;;;;;4989437;28;20066;-77
2023/12/22 02:34:19;;;;;;;3.10;0.88;;;6.50;99.90;;;;;;4986659;28;20053;-77
2023/12/22 02:36:47;;;;;;;1.55;1.00;;;6.50;99.90;;;;;;4988190;28;20096;-77
2023/12/22 02:39:14;;;;;;;2.10;0.90;;;6.50;99.90;;;;;;4987317;28;20038;-77
2023/12/22 02:41:40;;;;;;;6.05;1.10;;;6.40;99.90;;;;;;4982909;28;20049;-77
2023/12/22 02:44:07;;;;;;;3.25;1.05;;;6.40;99.90;;;;;;4993106;28;20065;-77
2023/12/22 02:46:32;;;;;;;1.95;1.65;;;6.30;99.90;;;;;;5000370;28;20128;-77
2023/12/22 02:48:58;;;;;;;1.50;1.00;;;6.20;99.90;;;;;;4995825;28;20130;-77
2023/12/22 02:51:23;;;;;;;2.15;1.08;;;6.20;99.90;;;;;;4981635;28;20088;-77
2023/12/22 02:53:49;;;;;;;1.35;1.17;;;6.20;99.90;;;;;;4999107;28;20038;-77
2023/12/22 02:56:15;;;;;;;5.25;1.15;;;6.10;99.90;;;;;;4989658;28;20042;-77
2023/12/22 02:58:40;;;;;;;5.63;1.98;;;6.10;99.90;;;;;;4984015;28;20270;-77
2023/12/22 03:01:06;;;;;;;3.13;1.85;;;6.10;99.90;;;;;;4982990;28;20100;-77
2023/12/22 03:03:31;;;;;;;19.35;2.75;;;6.10;99.90;;;;;;4998626;28;20121;-77
2023/12/22 03:05:57;;;;;;;3.67;1.90;;;6.20;99.90;;;;;;5001185;28;20049;-77
2023/12/22 03:08:22;;;;;;;3.42;1.90;;;6.20;99.90;;;;;;4996538;28;20045;-77
2023/12/22 03:10:49;;;;;;;3.53;1.98;;;6.20;99.90;;;;;;5034570;28;20137;-77
2023/12/22 03:13:15;;;;;;;14.38;2.25;;;6.20;99.90;;;;;;4999503;28;20141;-77
2023/12/22 03:15:40;;;;;;;10.65;2.78;;;6.20;99.90;;;;;;4999354;28;20046;-77
2023/12/22 03:18:06;;;;;;;6.45;1.80;;;6.30;99.90;;;;;;4986951;28;20523;-76
2023/12/22 03:20:32;;;;;;;10.65;2.72;;;6.30;99.90;;;;;;4983425;28;20080;-77
2023/12/22 03:22:58;;;;;;;8.85;4.45;;;6.40;99.90;;;;;;4985638;28;20129;-77
2023/12/22 03:25:24;;;;;;;5.72;2.13;;;6.40;99.90;;;;;;4981791;28;20126;-77
2023/12/22 03:27:50;;;;;;;4.05;1.33;;;6.40;99.90;;;;;;4986620;28;20141;-77
2023/12/22 03:30:15;;;;;;;5.55;1.90;;;6.40;99.90;;;;;;4967065;28;20117;-78
2023/12/22 03:32:41;;;;;;;1.92;1.30;;;6.50;99.90;;;;;;4986880;28;20476;-77
2023/12/22 03:35:07;;;;;;;1.60;1.20;;;6.50;99.90;;;;;;4993407;28;20451;-77
2023/12/22 03:37:32;;;;;;;2.15;1.95;;;6.50;99.90;;;;;;5001104;28;20038;-77
2023/12/22 03:39:58;;;;;;;4.97;2.15;;;6.60;99.90;;;;;;4994906;28;20078;-77
2023/12/22 03:42:23;;;;;;;2.72;1.70;;;6.60;99.90;;;;;;5032747;28;20125;-77
2023/12/22 03:44:49;;;;;;;3.83;2.08;;;6.60;99.90;;;;;;5001295;28;20049;-77
2023/12/22 03:47:15;;;;;;;9.93;2.28;;;6.60;99.90;;;;;;5000234;28;20046;-77
2023/12/22 03:49:40;;;;;;;4.03;2.13;;;6.60;99.90;;;;;;4989844;28;20084;-77
2023/12/22 03:52:06;;;;;;;5.75;2.55;;;6.70;99.90;;;;;;5001035;28;20071;-77
2023/12/22 03:54:31;;;;;;;10.30;2.13;;;6.70;99.90;;;;;;5002100;28;20042;-77
2023/12/22 03:56:57;;;;;;;1.40;1.30;;;6.70;99.90;;;;;;5000024;28;20040;-77
2023/12/22 03:59:23;;;;;;;8.77;2.15;;;6.70;99.90;;;;;;5032593;28;20042;-77
2023/12/22 04:01:52;;;;;;;2.83;1.20;;;6.70;99.90;;;;;;4991033;28;20050;-77
2023/12/22 04:04:18;;;;;;;3.55;2.10;;;6.70;99.90;;;;;;4981531;28;20062;-77
2023/12/22 04:06:44;;;;;;;8.90;3.08;;;6.80;99.90;;;;;;4981396;28;20046;-77
2023/12/22 04:09:09;;;;;;;1.75;0.85;;;6.70;99.90;;;;;;4984803;28;20065;-77
2023/12/22 04:11:36;;;;;;;4.45;1.02;;;6.70;99.90;;;;;;4985736;28;20189;-77
2023/12/22 04:14:02;;;;;;;3.33;1.90;;;6.70;99.90;;;;;;4982292;28;20077;-76
2023/12/22 04:16:28;;;;;;;2.78;1.48;;;6.80;99.90;;;;;;4981409;28;20070;-77
2023/12/22 04:18:53;;;;;;;1.63;1.52;;;6.80;99.90;;;;;;4980400;28;20053;-77
2023/12/22 04:21:19;;;;;;;6.60;2.03;;;6.80;99.90;;;;;;4989942;28;20038;-77
2023/12/22 04:23:44;;;;;;;2.75;1.30;;;6.80;99.90;;;;;;4981251;28;20138;-77
2023/12/22 04:26:10;;;;;;;2.30;1.45;;;6.80;99.90;;;;;;4981286;28;20054;-77
2023/12/22 04:28:36;;;;;;;4.93;1.85;;;6.80;99.90;;;;;;4981774;28;20104;-77
2023/12/22 04:31:01;;;;;;;11.32;1.52;;;6.80;99.90;;;;;;4992864;28;20045;-77
2023/12/22 04:33:27;;;;;;;6.03;2.35;;;6.80;99.90;;;;;;4983681;28;20043;-77
2023/12/22 04:35:53;;;;;;;4.22;2.22;;;6.90;99.90;;;;;;4990152;28;20177;-77
2023/12/22 04:38:18;;;;;;;3.42;2.60;;;6.80;99.90;;;;;;5000149;28;20045;-77
2023/12/22 04:40:44;;;;;;;3.13;2.03;;;6.80;99.90;;;;;;4999632;28;20191;-77
2023/12/22 04:43:09;;;;;;;9.13;2.10;;;6.80;99.90;;;;;;4982738;28;20133;-77
2023/12/22 04:45:35;;;;;;;2.95;1.63;;;6.80;99.90;;;;;;4995906;28;20038;-78
2023/12/22 04:48:00;;;;;;;9.00;2.25;;;6.80;99.90;;;;;;5000218;28;20503;-77
2023/12/22 04:50:26;;;;;;;4.78;2.42;;;6.80;99.90;;;;;;4994366;28;20034;-77
2023/12/22 04:52:52;;;;;;;6.07;2.30;;;6.80;99.90;;;;;;5027105;28;20034;-77
2023/12/22 04:55:17;;;;;;;4.15;1.85;;;6.80;99.90;;;;;;4995395;28;20099;-77
2023/12/22 04:57:43;;;;;;;4.93;2.72;;;6.90;99.90;;;;;;4999402;28;20552;-77
2023/12/22 05:00:09;;;;;;;1.73;1.00;;;6.90;99.90;;;;;;4996597;28;20735;-77
2023/12/22 05:02:34;;;;;;;3.38;1.60;;;6.90;99.90;;;;;;4999541;28;20112;-77
2023/12/22 05:05:01;;;;;;;9.63;2.03;;;6.90;99.90;;;;;;4982115;28;20046;-77
2023/12/22 05:07:27;;;;;;;3.13;1.00;;;6.90;99.90;;;;;;4983269;28;20046;-78
2023/12/22 05:09:54;;;;;;;2.63;1.60;;;6.90;99.90;;;;;;4989636;28;20089;-77
2023/12/22 05:12:20;;;;;;;3.53;2.63;;;6.90;99.90;;;;;;4972789;28;20055;-78
2023/12/22 05:14:45;;;;;;;4.53;1.02;;;6.90;99.90;;;;;;4994595;28;20044;-77
2023/12/22 05:17:11;;;;;;;1.15;1.05;;;6.90;99.90;;;;;;5021060;28;20046;-77
2023/12/22 05:19:38;;;;;;;7.25;3.22;;;6.90;99.90;;;;;;4985653;28;20133;-77
2023/12/22 05:22:03;;;;;;;5.80;2.38;;;6.90;99.90;;;;;;4996387;28;20133;-77
2023/12/22 05:24:29;;;;;;;3.80;1.30;;;6.90;99.90;;;;;;5002938;28;20133;-77
2023/12/22 05:26:54;;;;;;;2.35;1.05;;;6.80;99.90;;;;;;4984731;28;20486;-77
2023/12/22 05:29:20;;;;;;;4.55;1.00;;;6.80;99.90;;;;;;4985454;28;20053;-76
2023/12/22 05:31:45;;;;;;;7.22;2.35;;;6.80;99.90;;;;;;4989561;28;20042;-77
2023/12/22 05:34:11;;;;;;;3.10;1.23;;;6.90;99.90;;;;;;4985162;28;20042;-77
2023/12/22 05:36:37;;;;;;;1.00;0.55;;;6.80;99.90;;;;;;4986566;28;20074;-77
2023/12/22 05:39:02;;;;;;;2.22;1.30;;;6.90;99.90;;;;;;5035028;28;20042;-77
2023/12/22 05:41:28;;;;;;;2.50;2.22;;;6.90;99.90;;;;;;5034469;28;20112;-77
2023/12/22 05:43:54;;;;;;;1.17;0.82;;;6.90;99.90;;;;;;4996245;28;20046;-77
2023/12/22 05:46:19;;;;;;;4.63;1.90;;;6.90;99.90;;;;;;4983357;28;20046;-77
2023/12/22 05:48:45;;;;;;;1.50;1.08;;;6.90;99.90;;;;;;4986028;28;20065;-77
2023/12/22 05:51:13;;;;;;;1.92;1.38;;;7.00;99.90;;;;;;4999279;28;20052;-77
2023/12/22 05:53:40;;;;;;;4.70;2.53;;;7.00;99.90;;;;;;4974560;28;20046;-77
2023/12/22 05:56:21;;;;;;;8.00;2.08;;;7.00;99.90;;;;;;5001520;28;20105;-77
2023/12/22 05:58:49;;;;;;;5.22;1.60;;;7.00;99.90;;;;;;4989543;28;20080;-77
2023/12/22 06:01:19;;;;;;;8.13;1.08;;;6.90;99.90;;;;;;4998893;28;20046;-77
2023/12/22 06:03:45;;;;;;;3.22;1.20;;;6.90;99.90;;;;;;5019741;28;20051;-77
2023/12/22 06:06:11;;;;;;;3.30;1.95;;;6.90;99.90;;;;;;4986095;28;20444;-76
2023/12/22 06:08:38;;;;;;;1.80;1.13;;;6.90;99.90;;;;;;4985063;28;20065;-77
2023/12/22 06:11:04;;;;;;;12.93;1.88;;;6.90;99.90;;;;;;4992564;28;20050;-77
2023/12/22 06:13:29;;;;;;;1.48;1.38;;;6.90;99.90;;;;;;5001189;28;20259;-77
2023/12/22 06:15:55;;;;;;;8.02;2.58;;;6.90;99.90;;;;;;4991765;28;20054;-77
2023/12/22 06:18:20;;;;;;;4.05;1.52;;;6.90;99.90;;;;;;5027022;28;20042;-77
2023/12/22 06:20:46;;;;;;;10.30;2.08;;;6.90;99.90;;;;;;5001518;28;20448;-77
2023/12/22 06:23:12;;;;;;;12.13;1.13;;;6.90;99.90;;;;;;4997617;28;21474;-77
2023/12/22 06:25:37;;;;;;;4.38;2.03;;;6.90;99.90;;;;;;4985507;28;20046;-82
2023/12/22 06:28:03;;;;;;;4.75;2.50;;;6.90;99.90;;;;;;4963440;28;20390;-84
2023/12/22 06:30:30;;;;;;;7.07;1.90;;;6.90;99.90;;;;;;4979798;28;20085;-81
2023/12/22 06:32:55;;;;;;;2.35;1.25;;;6.90;99.90;;;;;;4984641;28;20125;-81
2023/12/22 06:35:23;;;;;;;5.75;1.42;;;6.90;99.90;;;;;;4968982;28;20181;-81
2023/12/22 06:37:49;;;;;;;1.58;0.88;;;6.90;99.90;;;;;;4988468;28;20539;-81
2023/12/22 06:40:15;;;;;;;2.22;0.70;;;6.90;99.90;;;;;;4970867;28;20030;-83
2023/12/22 06:42:41;;;;;;;4.07;1.92;;;6.90;99.90;;;;;;4983946;28;20041;-82
2023/12/22 06:45:07;;;;;;;8.60;2.55;;;6.90;99.90;;;;;;5030355;28;20073;-82
2023/12/22 06:47:33;;;;;;;4.43;0.82;;;6.90;99.90;;;;;;4993037;28;20053;-81
2023/12/22 06:49:58;;;;;;;1.95;1.25;;;6.90;99.90;;;;;;4983223;28;20072;-82
2023/12/22 06:52:24;;;;;;;3.53;1.80;;;6.90;99.90;;;;;;4991883;28;20484;-83
2023/12/22 06:54:50;;;;;;;3.72;0.88;;;6.90;99.90;;;;;;5029276;28;20060;-84
2023/12/22 06:57:16;;;;;;;6.95;1.58;;;7.00;99.90;;;;;;4970460;28;20121;-83
2023/12/22 06:59:42;;;;;;;5.25;1.38;;;7.00;99.90;;;;;;4980709;28;20174;-81
2023/12/22 07:02:08;;;;;;;1.90;1.15;;;7.00;99.90;;;;;;4978514;28;20271;-80
2023/12/22 07:05:08;;;;;;;3.25;0.93;;;7.00;99.90;;;;;;4978391;28;20038;-81
2023/12/22 07:07:34;;;;;;;2.95;1.13;;;7.00;99.90;;;;;;4980881;28;20049;-82
2023/12/22 07:09:59;;;;;;;6.45;2.28;;;7.00;99.90;;;;;;4986291;28;20046;-81
2023/12/22 07:12:25;;;;;;;8.85;2.30;;;7.00;99.90;;;;;;4982468;28;20058;-83
2023/12/22 07:14:50;;;;;;;4.03;1.33;;;7.00;99.90;;;;;;4995099;28;20049;-82
2023/12/22 07:17:16;;;;;;;11.40;2.67;;;7.00;99.90;;;;;;4989484;28;20100;-81
2023/12/22 07:19:42;;;;;;;4.05;1.92;;;7.00;99.90;;;;;;4985171;28;20625;-82
2023/12/22 07:22:07;;;;;;;3.72;2.05;;;7.00;99.90;;;;;;4989280;28;20135;-82
2023/12/22 07:24:33;;;;;;;10.18;2.55;;;7.00;99.90;;;;;;5001219;28;20037;-78
2023/12/22 07:26:58;;;;;;;11.02;2.05;;;7.00;99.90;;;;;;4994209;28;20081;-76
2023/12/22 07:29:24;;;;;;;6.47;2.33;;;7.00;99.90;;;;;;4983370;28;20046;-75
2023/12/22 07:31:50;;;;;;;5.53;1.42;;;7.00;99.90;;;;;;4980838;28;20056;-75
2023/12/22 07:34:16;;;;;;;7.38;2.33;;;7.00;99.90;;;;;;4983274;28;20786;-75
2023/12/22 07:36:42;;;;;;;9.93;1.52;;;7.00;99.90;;;;;;4991047;28;20094;-75
2023/12/22 07:39:09;;;;;;;5.25;2.45;;;7.00;99.90;;;;;;4965224;28;20101;-74
2023/12/22 07:41:34;;;;;;;10.05;1.65;;;7.00;99.90;;;;;;4995572;28;20050;-77
2023/12/22 07:44:01;;;;;;;4.25;2.10;;;7.10;99.90;;;;;;4992549;28;20053;-75
2023/12/22 07:46:28;;;;;;;2.65;1.70;;;7.10;99.90;;;;;;4983264;28;20057;-75
2023/12/22 07:48:54;;;;;;;3.92;1.10;;;7.10;99.90;;;;;;4982015;28;20054;-74
2023/12/22 07:51:20;;;;;;;2.92;1.15;;;7.10;99.90;;;;;;4990012;28;20044;-75
2023/12/22 07:53:45;;;;;;;2.55;1.45;;;7.10;99.90;;;;;;5001022;28;20048;-75
2023/12/22 07:56:11;;;;;;;0.80;0.30;;;7.00;99.90;;;;;;5013393;28;20049;-73
2023/12/22 07:58:38;;;;;;;5.45;0.93;;;7.00;99.90;;;;;;4985861;28;20054;-75
2023/12/22 08:01:05;;;;;;;5.10;1.10;;;7.00;99.90;;;;;;4982966;28;20412;-72
2023/12/22 08:03:31;;;;;;;4.22;1.00;;;7.00;99.90;;;;;;4991000;28;20041;-76
2023/12/22 08:05:57;;;;;;;2.08;0.50;;;7.00;99.90;;;;;;4993149;28;20068;-77
2023/12/22 08:08:22;;;;;;;0.63;0.30;;;6.90;99.90;;;;;;4991401;28;20489;-73
2023/12/22 08:10:48;;;;;;;0.40;0.40;;;6.90;99.90;;;;;;4986266;28;20464;-73
2023/12/22 08:13:14;;;;;;;1.42;0.40;;;6.90;99.90;;;;;;4998084;28;20086;-73
2023/12/22 08:15:39;;;;;;;0.60;0.50;;;6.80;99.90;;;;;;4996112;28;20833;-72
2023/12/22 08:18:05;;;;;;;0.98;0.57;;;6.80;99.90;;;;;;4994042;28;20046;-74
2023/12/22 08:20:31;;;;;;;2.03;0.88;;;6.70;99.90;;;;;;4979492;28;20156;-73
2023/12/22 08:22:56;;;;;;;3.47;1.08;;;6.70;99.90;;;;;;4998545;28;20042;-73
2023/12/22 08:25:22;;;;;;;1.33;0.57;;;6.70;99.90;;;;;;4986799;28;20046;-73
2023/12/22 08:27:47;;;;;;;0.57;0.57;;;6.70;99.90;;;;;;5020196;28;20058;-74
2023/12/22 08:30:14;;;;;;;2.30;0.68;;;6.70;99.90;;;;;;4989976;28;20074;-74
2023/12/22 08:32:40;;;;;;;1.05;0.70;;;6.70;99.90;;;;;;4992130;28;20037;-74
2023/12/22 08:35:06;;;;;;;4.13;0.90;;;6.70;99.90;;;;;;4983294;28;20052;-74
2023/12/22 08:37:32;;;;;;;3.20;1.90;;;6.70;99.90;;;;;;4981051;28;20049;-76
2023/12/22 08:39:57;;;;;;;0.63;0.25;;;6.70;99.90;;;;;;5021993;28;20038;-73
2023/12/22 08:42:24;;;;;;;3.55;0.80;;;6.70;99.90;;;;;;4981019;28;20058;-73
2023/12/22 08:44:50;;;;;;;1.10;0.57;;;6.70;99.90;;;;;;4997169;28;20053;-76
2023/12/22 08:47:16;;;;;;;1.30;0.77;;;6.70;99.90;;;;;;4988212;28;20180;-76
2023/12/22 08:49:41;;;;;;;6.43;1.13;;;6.70;99.90;;;;;;4985693;28;20121;-74
2023/12/22 08:52:07;;;;;;;1.15;0.90;;;6.70;99.90;;;;;;4984600;28;20047;-74
2023/12/22 08:54:34;;;;;;;1.50;0.70;;;6.70;99.90;;;;;;4987793;28;20046;-74
2023/12/22 08:57:00;;;;;;;3.50;1.88;;;6.70;99.90;;;;;;4979679;28;20592;-74
2023/12/22 08:59:26;;;;;;;3.67;1.00;;;6.70;99.90;;;;;;4973402;28;20568;-76
2023/12/22 09:01:51;;;;;;;3.40;0.70;;;6.70;99.90;;;;;;4985066;28;20202;-75
2023/12/22 09:04:17;;;;;;;8.88;0.90;;;6.70;99.90;;;;;;4968228;28;20038;-76
2023/12/22 09:06:43;;;;;;;1.75;1.27;;;6.70;99.90;;;;;;4983204;28;20054;-77
2023/12/22 09:09:09;;;;;;;6.35;2.17;;;6.70;99.90;;;;;;4985412;28;20054;-76
2023/12/22 09:11:35;;;;;;;1.63;1.02;;;6.70;99.90;;;;;;4965912;28;20050;-75
2023/12/22 09:14:01;;;;;;;4.60;1.10;;;6.70;99.90;;;;;;4993868;28;20083;-74
2023/12/22 09:16:26;;;;;;;2.28;1.08;;;6.70;99.90;;;;;;4990869;28;20026;-76
2023/12/22 09:18:52;;;;;;;4.15;1.85;;;6.80;99.90;;;;;;4983723;28;20513;-76
2023/12/22 09:21:18;;;;;;;1.23;0.82;;;6.80;99.90;;;;;;4989018;28;20042;-73
2023/12/22 09:23:46;;;;;;;7.70;0.93;;;6.80;99.90;;;;;;5016888;28;20061;-73
2023/12/22 09:26:12;;;;;;;6.65;2.53;;;6.80;99.90;;;;;;4985002;28;20049;-77
2023/12/22 09:28:38;;;;;;;6.25;1.77;;;6.90;99.90;;;;;;4992740;28;20166;-76
2023/12/22 09:31:05;;;;;;;7.32;1.48;;;6.90;99.90;;;;;;4986807;28;20212;-75
2023/12/22 09:33:31;;;;;;;4.00;2.28;;;6.90;99.90;;;;;;4983511;28;20048;-75
2023/12/22 09:35:56;;;;;;;3.75;1.23;;;7.00;99.90;;;;;;4987262;28;20180;-75
2023/12/22 09:38:23;;;;;;;2.88;1.38;;;7.00;99.90;;;;;;4985311;28;20145;-76
2023/12/22 09:40:50;;;;;;;3.08;1.00;;;7.00;99.90;;;;;;4984038;28;20046;-76
2023/12/22 09:43:16;;;;;;;2.65;1.20;;;7.00;99.90;;;;;;5015173;28;20125;-75
2023/12/22 09:45:42;;;;;;;4.50;1.55;;;7.00;99.90;;;;;;4984412;28;20125;-75
2023/12/22 09:48:10;;;;;;;2.70;0.75;;;7.00;99.90;;;;;;4990497;28;20061;-76
2023/12/22 09:50:37;;;;;;;0.93;0.90;;;7.00;99.90;;;;;;5010306;28;20042;-74
2023/12/22 09:53:03;;;;;;;12.95;1.92;;;7.00;99.90;;;;;;4982135;28;20204;-80
2023/12/22 09:55:30;;;;;;;1.40;0.75;;;7.10;99.90;;;;;;4987485;28;20049;-76
2023/12/22 09:57:56;;;;;;;5.63;1.27;;;7.10;99.90;;;;;;4988081;28;20093;-76
2023/12/22 10:00:23;;;;;;;2.30;1.50;;;7.10;99.90;;;;;;4987200;28;20077;-76
2023/12/22 10:02:49;;;;;;;5.13;1.38;;;7.10;99.90;;;;;;4983926;28;20047;-75
2023/12/22 10:05:15;;;;;;;4.63;0.73;;;7.20;99.90;;;;;;4983188;28;20057;-76
2023/12/22 10:07:45;;;;;;;3.08;0.98;;;7.20;99.90;;;;;;4966691;28;20452;-75
2023/12/22 10:10:12;;;;;;;1.42;0.70;;;7.20;99.90;;;;;;4981684;28;20049;-75
2023/12/22 10:12:39;;;;;;;2.63;1.38;;;7.20;99.90;;;;;;4982310;28;20529;-75
2023/12/22 10:15:07;;;;;;;2.92;1.48;;;7.20;99.90;;;;;;4984650;28;20034;-76
2023/12/22 10:17:33;;;;;;;4.35;2.05;;;7.20;99.90;;;;;;4983079;28;20046;-75
2023/12/22 10:19:59;;;;;;;3.65;1.73;;;7.30;99.90;;;;;;4982988;28;20093;-75
2023/12/22 10:22:24;;;;;;;4.57;1.60;;;7.20;99.90;;;;;;4992798;28;20611;-77
2023/12/22 10:24:53;;;;;;;1.95;0.82;;;7.30;99.90;;;;;;5000411;28;20326;-78
2023/12/22 10:27:22;;;;;;;6.63;1.70;;;7.30;99.90;;;;;;4985699;28;20038;-77
2023/12/22 10:29:55;;;;;;;2.45;0.88;;;7.30;99.90;;;;;;4983741;28;20046;-78
2023/12/22 10:32:21;;;;;;;1.40;1.27;;;7.30;99.90;;;;;;4983403;28;20085;-75
2023/12/22 10:34:48;;;;;;;3.03;1.95;;;7.30;99.90;;;;;;5016700;28;20057;-75
2023/12/22 10:37:13;;;;;;;3.65;1.77;;;7.30;99.90;;;;;;4965561;28;20393;-74
2023/12/22 10:39:39;;;;;;;3.45;0.98;;;7.30;99.90;;;;;;4988517;28;20046;-75
2023/12/22 10:42:05;;;;;;;3.42;0.82;;;7.30;99.90;;;;;;5015306;28;20061;-74
2023/12/22 10:44:31;;;;;;;3.58;1.42;;;7.30;99.90;;;;;;4966650;28;20041;-75
2023/12/22 10:46:57;;;;;;;3.80;1.00;;;7.30;99.90;;;;;;4982497;28;20042;-74
2023/12/22 10:49:25;;;;;;;2.13;1.40;;;7.30;99.90;;;;;;5023544;28;20056;-74
2023/12/22 10:51:51;;;;;;;2.35;1.65;;;7.40;99.90;;;;;;4984296;28;20080;-76
2023/12/22 10:54:18;;;;;;;2.78;0.90;;;7.40;99.90;;;;;;4999499;28;20378;-76
2023/12/22 10:56:43;;;;;;;2.45;1.48;;;7.40;99.90;;;;;;4978416;28;20662;-75
2023/12/22 10:59:09;;;;;;;1.27;1.17;;;7.40;99.90;;;;;;4990540;28;20057;-75
2023/12/22 11:01:38;;;;;;;8.38;2.65;;;7.50;99.90;;;;;;4987927;28;20042;-73
2023/12/22 11:04:16;;;;;;;3.97;0.70;;;7.50;99.90;;;;;;4999200;28;20049;-74
2023/12/22 11:06:44;;;;;;;3.72;1.42;;;7.50;99.90;;;;;;5000349;28;20046;-74
2023/12/22 11:09:10;;;;;;;4.35;1.83;;;7.50;99.90;;;;;;4980271;28;20065;-74
2023/12/22 11:11:38;;;;;;;0.95;0.93;;;7.60;99.90;;;;;;4965141;28;20412;-74
2023/12/22 11:14:05;;;;;;;7.22;1.10;;;7.60;99.90;;;;;;4965838;28;20327;-74
2023/12/22 11:16:33;;;;;;;3.83;1.08;;;7.60;99.90;;;;;;4980207;28;20049;-75
2023/12/22 11:18:59;;;;;;;2.75;1.27;;;7.60;99.90;;;;;;5027897;28;20147;-74
2023/12/22 11:21:26;;;;;;;7.72;2.42;;;7.60;99.90;;;;;;4979205;28;20046;-75
2023/12/22 11:23:52;;;;;;;6.72;1.83;;;7.60;99.90;;;;;;4964160;28;20038;-74
2023/12/22 11:26:19;;;;;;;4.75;1.20;;;7.70;99.90;;;;;;4979853;28;20089;-75
2023/12/22 11:28:47;;;;;;;10.35;3.17;;;7.70;99.90;;;;;;4981137;28;20485;-74
2023/12/22 11:31:13;;;;;;;6.60;1.52;;;7.70;99.90;;;;;;4979636;28;20486;-74
2023/12/22 11:33:45;;;;;;;4.22;1.23;;;7.70;99.90;;;;;;4982766;28;20065;-73
2023/12/22 11:36:13;;;;;;;6.03;1.35;;;7.70;99.90;;;;;;4978584;28;20038;-75
2023/12/22 11:38:43;;;;;;;3.03;1.85;;;7.70;99.90;;;;;;4984698;28;20092;-73
2023/12/22 11:41:13;;;;;;;3.92;1.75;;;7.70;99.90;;;;;;4964281;28;20038;-74
2023/12/22 11:43:40;;;;;;;2.85;1.02;;;7.70;99.90;;;;;;4982765;28;20038;-74
2023/12/22 11:46:06;;;;;;;6.82;1.48;;;7.70;99.90;;;;;;5013928;28;20070;-73
2023/12/22 11:48:32;;;;;;;1.67;1.48;;;7.70;99.90;;;;;;4981535;28;20081;-73
2023/12/22 11:50:58;;;;;;;5.60;1.85;;;7.70;99.90;;;;;;4979648;28;20054;-74
2023/12/22 11:53:25;;;;;;;2.20;0.93;;;7.70;99.90;;;;;;4997343;28;20277;-73
2023/12/22 11:55:59;;;;;;;6.53;1.73;;;7.70;99.90;;;;;;4981643;28;20133;-74
2023/12/22 11:58:52;;;;;;;5.07;0.93;;;7.70;99.90;;;;;;4982820;28;20688;-73
2023/12/22 12:01:19;;;;;;;4.65;1.40;;;7.70;99.90;;;;;;5009410;28;20069;-71
2023/12/22 12:03:52;;;;;;;8.63;1.65;;;7.70;99.90;;;;;;5014081;28;20057;-72
2023/12/22 12:06:27;;;;;;;3.20;2.10;;;7.70;99.90;;;;;;5009256;28;20049;-72
2023/12/22 12:08:56;;;;;;;4.53;0.65;;;7.70;99.90;;;;;;4978828;28;20054;-72
2023/12/22 12:11:23;;;;;;;11.90;1.02;;;7.70;99.90;;;;;;4975835;28;20046;-72
2023/12/22 12:13:50;;;;;;;4.53;1.70;;;7.70;99.90;;;;;;4981113;28;20054;-72
2023/12/22 12:16:21;;;;;;;3.75;1.38;;;7.70;99.90;;;;;;4978813;28;20038;-73
2023/12/22 12:18:47;;;;;;;2.25;0.50;;;7.70;99.90;;;;;;4980050;28;20057;-72
2023/12/22 12:21:13;;;;;;;1.83;0.93;;;7.70;99.90;;;;;;5010378;28;20266;-72
2023/12/22 12:23:41;;;;;;;1.73;0.60;;;7.70;99.90;;;;;;4979696;28;20093;-72
2023/12/22 12:26:08;;;;;;;2.50;1.23;;;7.70;99.90;;;;;;4978860;28;20252;-73
2023/12/22 12:28:35;;;;;;;2.20;0.60;;;7.70;99.90;;;;;;4963278;28;20178;-72
2023/12/22 12:31:05;;;;;;;0.90;0.50;;;7.60;99.90;;;;;;4979861;28;20160;-73
2023/12/22 12:33:32;;;;;;;5.78;1.00;;;7.60;99.90;;;;;;4980396;28;20057;-72
2023/12/22 12:36:00;;;;;;;1.67;0.95;;;7.60;99.90;;;;;;4978847;28;20163;-73
2023/12/22 12:39:03;;;;;;;5.63;1.85;;;7.60;99.90;;;;;;4983188;28;20111;-72
2023/12/22 12:41:34;;;;;;;4.50;1.55;;;7.60;99.90;;;;;;5004945;28;20524;-73
2023/12/22 12:44:00;;;;;;;1.88;1.52;;;7.60;99.90;;;;;;4978978;28;20082;-72
2023/12/22 12:46:39;;;;;;;3.42;1.25;;;7.60;99.90;;;;;;5011577;28;20034;-73
2023/12/22 12:49:09;;;;;;;5.00;1.23;;;7.50;99.90;;;;;;4979089;28;20046;-73
2023/12/22 12:51:45;;;;;;;4.63;1.25;;;7.60;99.90;;;;;;4990238;28;20045;-73
2023/12/22 12:54:11;;;;;;;2.13;1.02;;;7.60;99.90;;;;;;4985287;28;20516;-73